Kensen, Arkansas
Current Conditions -  °F | °C
As of 11:56 AM on Friday 28 Nov 2014 (Local Time) from KSRC Reporting Station
Clear Clear  
Wind Chill: 51°   Ceiling: Unl
Heat Index: 51°   Visibility: 10mi
Dew Point: 33°   Wind: 12mph
Humidity: 50%   Direction: 180°S
Pressure: 30.26"   Gusts: NA
Location:  35.2119°N, 91.6651°W
Report Text: KSRC 281756Z AUTO 18010KT 10SM CLR 11/01 A3026 RMK AO2 SLP254 T01060006 10111 21039 58040 TSNO
Loading
Personal Weather Stations






























Interactive Weather Map New forecast layout! Learn more

10-Day Weather Forecast

Advertisements
Track Severe Weather on mobile